createdAt,value
2022-10-11T00:00:46.646Z,96584.78
2022-10-11T00:03:14.438Z,96588.81
2022-10-11T00:05:43.839Z,96599.50
2022-10-11T00:08:11.565Z,96601.34
2022-10-11T00:10:39.009Z,96601.41
2022-10-11T00:13:08.467Z,96590.34
2022-10-11T00:15:35.965Z,96583.78
2022-10-11T00:18:05.529Z,96598.34
2022-10-11T00:20:33.084Z,96593.22
2022-10-11T00:23:00.556Z,96600.63
2022-10-11T00:25:28.428Z,96608.47
2022-10-11T00:27:55.864Z,96604.13
2022-10-11T00:30:24.613Z,96607.34
2022-10-11T00:32:52.137Z,96606.59
2022-10-11T00:35:19.659Z,96598.69
2022-10-11T00:37:47.150Z,96607.47
2022-10-11T00:40:17.584Z,96603.72
2022-10-11T00:42:45.199Z,96613.47
2022-10-11T00:45:52.130Z,96612.72
2022-10-11T00:48:27.510Z,96602.19
2022-10-11T00:50:56.563Z,96602.03
2022-10-11T00:53:24.258Z,96606.03
2022-10-11T00:55:57.016Z,96608.69
2022-10-11T00:58:24.944Z,96616.47
2022-10-11T01:00:53.971Z,96608.53
2022-10-11T01:03:27.772Z,96609.75
2022-10-11T01:05:56.488Z,96615.75
2022-10-11T01:08:24.101Z,96618.75
2022-10-11T01:10:52.774Z,96621.16
2022-10-11T01:13:31.138Z,96622.22
2022-10-11T01:16:08.915Z,96620.66
2022-10-11T01:18:49.674Z,96611.34
2022-10-11T01:21:31.843Z,96620.13
2022-10-11T01:24:39.658Z,96618.16
2022-10-11T01:27:37.921Z,96618.16
2022-10-11T01:30:19.371Z,96620.78
2022-10-11T01:32:54.898Z,96625.16
2022-10-11T01:35:29.229Z,96621.19
2022-10-11T01:38:00.606Z,96630.72
2022-10-11T01:40:32.745Z,96628.72
2022-10-11T01:43:02.597Z,96629.75
2022-10-11T01:45:33.703Z,96638.88
2022-10-11T01:48:08.896Z,96637.72
2022-10-11T01:50:44.209Z,96634.72
2022-10-11T01:53:41.212Z,96643.88
2022-10-11T01:56:22.600Z,96642.28
2022-10-11T01:59:04.524Z,96638.50
2022-10-11T02:01:46.401Z,96644.69
2022-10-11T02:04:22.348Z,96645.88
2022-10-11T02:06:58.320Z,96640.72
2022-10-11T02:09:32.383Z,96634.34
2022-10-11T02:12:07.438Z,96640.50
2022-10-11T02:14:40.157Z,96635.72
2022-10-11T02:17:13.758Z,96646.81
2022-10-11T02:19:45.142Z,96644.22
2022-10-11T02:22:19.118Z,96637.66
2022-10-11T02:24:50.512Z,96638.06
2022-10-11T02:27:21.588Z,96641.41
2022-10-11T02:29:50.822Z,96637.41
2022-10-11T02:32:21.843Z,96641.38
2022-10-11T02:34:53.238Z,96628.63
2022-10-11T02:37:26.810Z,96638.13
2022-10-11T02:39:57.733Z,96642.09
2022-10-11T02:42:30.627Z,96643.63
2022-10-11T02:45:01.513Z,96635.66
2022-10-11T02:47:32.352Z,96644.00
2022-10-11T02:50:00.899Z,96648.94
2022-10-11T02:52:28.315Z,96649.50
2022-10-11T02:54:55.738Z,96654.78
2022-10-11T02:57:23.255Z,96658.75
2022-10-11T02:59:50.653Z,96646.16
2022-10-11T03:02:18.067Z,96653.09
2022-10-11T03:04:46.890Z,96662.19
2022-10-11T03:07:14.708Z,96653.03
2022-10-11T03:09:42.400Z,96652.63
2022-10-11T03:12:09.880Z,96662.13
2022-10-11T03:14:37.340Z,96660.59
2022-10-11T03:17:31.058Z,96656.03
2022-10-11T03:19:54.016Z,96654.38
2022-10-11T03:22:22.143Z,96656.75
2022-10-11T03:24:49.621Z,96656.75
2022-10-11T03:27:17.040Z,96669.41
2022-10-11T03:29:44.462Z,96668.59
2022-10-11T03:32:11.911Z,96674.63
2022-10-11T03:34:39.350Z,96674.53
2022-10-11T03:37:08.176Z,96682.38
2022-10-11T03:39:35.830Z,96673.34
2022-10-11T03:42:03.253Z,96678.88
2022-10-11T03:44:30.648Z,96677.47
2022-10-11T03:46:58.063Z,96684.53
2022-10-11T03:49:25.748Z,96690.91
2022-10-11T03:51:53.185Z,96685.06
2022-10-11T03:54:21.974Z,96675.94
2022-10-11T03:56:49.625Z,96693.63
2022-10-11T03:59:17.129Z,96684.81
2022-10-11T04:01:44.612Z,96681.00
2022-10-11T04:04:12.124Z,96692.13
2022-10-11T04:06:39.586Z,96681.31
2022-10-11T04:09:07.050Z,96694.66
2022-10-11T04:11:36.088Z,96706.56
2022-10-11T04:14:03.515Z,96697.41
2022-10-11T04:16:30.937Z,96709.50
2022-10-11T04:18:58.347Z,96701.06
2022-10-11T04:21:25.760Z,96704.59
2022-10-11T04:23:53.188Z,96711.72
2022-10-11T04:26:20.622Z,96710.47
2022-10-11T04:28:49.429Z,96715.00
2022-10-11T04:31:16.953Z,96710.63
2022-10-11T04:33:44.384Z,96714.75
2022-10-11T04:36:11.814Z,96711.44
2022-10-11T04:38:39.204Z,96711.28
2022-10-11T04:41:07.835Z,96710.59
2022-10-11T04:43:35.336Z,96710.84
2022-10-11T04:46:04.590Z,96722.28
2022-10-11T04:48:32.356Z,96722.38
2022-10-11T04:50:59.828Z,96719.28
2022-10-11T04:53:27.292Z,96721.94
2022-10-11T04:56:00.928Z,96721.78
2022-10-11T04:58:28.879Z,96740.31
2022-10-11T05:00:56.528Z,96728.75
2022-10-11T05:03:26.294Z,96735.22
2022-10-11T05:05:54.153Z,96737.63
2022-10-11T05:08:23.062Z,96725.72
2022-10-11T05:10:56.664Z,96726.78
2022-10-11T05:13:24.170Z,96731.78
2022-10-11T05:15:51.681Z,96723.59
2022-10-11T05:18:19.199Z,96687.31
2022-10-11T05:20:48.221Z,96736.13
2022-10-11T05:23:15.714Z,96742.16
2022-10-11T05:25:43.206Z,96737.19
2022-10-11T05:28:10.670Z,96740.19
2022-10-11T05:30:38.155Z,96734.28
2022-10-11T05:33:05.628Z,96746.25
2022-10-11T05:35:33.083Z,96739.59
2022-10-11T05:38:01.884Z,96746.84
2022-10-11T05:40:29.332Z,96741.81
2022-10-11T05:42:56.744Z,96743.75
2022-10-11T05:45:24.200Z,96755.03
2022-10-11T05:47:51.629Z,96746.50
2022-10-11T05:50:24.017Z,96752.63
2022-10-11T05:52:51.844Z,96735.69
2022-10-11T05:55:20.674Z,96752.81
2022-10-11T05:57:48.109Z,96749.97
2022-10-11T06:00:16.163Z,96759.81
2022-10-11T06:02:43.564Z,96764.63
2022-10-11T06:05:11.107Z,96759.75
2022-10-11T06:07:38.854Z,96765.41
2022-10-11T06:10:07.501Z,96748.41
2022-10-11T06:12:36.375Z,96760.00
2022-10-11T06:15:04.468Z,96750.69
2022-10-11T06:17:31.902Z,96760.47
2022-10-11T06:19:59.301Z,96769.19
2022-10-11T06:22:27.405Z,96764.03
2022-10-11T06:24:54.804Z,96777.38
2022-10-11T06:27:22.413Z,96777.72
2022-10-11T06:29:51.268Z,96784.66
2022-10-11T06:32:18.732Z,96788.03
2022-10-11T06:34:46.137Z,96796.81
2022-10-11T06:37:13.764Z,96781.38
2022-10-11T06:39:41.282Z,96790.88
2022-10-11T06:42:08.720Z,96793.19
2022-10-11T06:44:36.140Z,96805.88
2022-10-11T06:47:04.990Z,96796.00
2022-10-11T06:49:32.424Z,96795.63
2022-10-11T06:51:59.839Z,96805.28
2022-10-11T06:54:27.508Z,96804.47
2022-10-11T06:56:54.939Z,96806.09
2022-10-11T06:59:22.386Z,96808.72
2022-10-11T07:01:49.832Z,96812.22
2022-10-11T07:04:18.640Z,96803.34
2022-10-11T07:06:46.068Z,96805.50
2022-10-11T07:09:13.522Z,96818.19
2022-10-11T07:11:40.971Z,96813.28
2022-10-11T07:14:08.588Z,96822.41
2022-10-11T07:16:36.944Z,96828.34
2022-10-11T07:19:06.830Z,96830.59
2022-10-11T07:21:36.598Z,96840.94
2022-10-11T07:24:04.622Z,96844.97
2022-10-11T07:26:38.843Z,96830.56
2022-10-11T07:29:08.279Z,96832.13
2022-10-11T07:31:36.982Z,96831.50
2022-10-11T07:34:04.404Z,96842.16
2022-10-11T07:36:31.868Z,96836.22
2022-10-11T07:39:00.760Z,96836.63
2022-10-11T07:41:28.172Z,96828.94
2022-10-11T07:43:55.596Z,96831.97
2022-10-11T07:46:23.218Z,96831.78
2022-10-11T07:48:50.974Z,96834.16
2022-10-11T07:51:20.879Z,96844.50
2022-10-11T07:53:50.413Z,96829.78
2022-10-11T07:56:21.621Z,96842.19
2022-10-11T07:58:52.212Z,96846.97
2022-10-11T08:01:20.647Z,96845.97
2022-10-11T08:03:48.542Z,96836.84
2022-10-11T08:06:18.431Z,96848.44
2022-10-11T08:08:45.858Z,96855.75
2022-10-11T08:11:22.419Z,96859.88
2022-10-11T08:13:50.027Z,96854.31
2022-10-11T08:16:17.637Z,96851.00
2022-10-11T08:18:45.496Z,96861.53
2022-10-11T08:21:15.464Z,96843.03
2022-10-11T08:23:43.356Z,96854.03
2022-10-11T08:26:10.877Z,96860.66
2022-10-11T08:28:39.816Z,96852.28
2022-10-11T08:31:07.766Z,96849.19
2022-10-11T08:33:35.224Z,96850.56
2022-10-11T08:36:05.540Z,96851.94
2022-10-11T08:38:33.483Z,96850.56
2022-10-11T08:41:02.378Z,96856.31
2022-10-11T08:43:37.323Z,96856.44
2022-10-11T08:46:09.195Z,96854.84
2022-10-11T08:48:40.522Z,96849.81
2022-10-11T08:51:16.922Z,96851.53
2022-10-11T08:53:50.050Z,96855.03
2022-10-11T08:56:18.414Z,96851.47
2022-10-11T08:58:51.014Z,96855.94
2022-10-11T09:01:23.603Z,96850.19
2022-10-11T09:03:52.341Z,96843.28
2022-10-11T09:06:29.432Z,96856.31
2022-10-11T09:09:08.460Z,96852.44
2022-10-11T09:11:47.278Z,96857.97
2022-10-11T09:14:35.526Z,96844.16
2022-10-11T09:17:11.301Z,96849.59
2022-10-11T09:19:58.170Z,96849.00
2022-10-11T09:22:34.760Z,96836.19
2022-10-11T09:25:21.979Z,96857.47
2022-10-11T09:28:03.609Z,96854.41
2022-10-11T09:30:32.367Z,96853.97
2022-10-11T09:33:11.290Z,96849.25
2022-10-11T09:35:42.325Z,96846.22
2022-10-11T09:38:27.238Z,96841.72
2022-10-11T09:41:08.560Z,96856.91
2022-10-11T09:43:36.127Z,96847.94
2022-10-11T09:46:04.354Z,96858.81
2022-10-11T09:48:39.942Z,96854.97
2022-10-11T09:51:14.077Z,96855.56
2022-10-11T09:54:00.219Z,96862.81
2022-10-11T09:56:29.677Z,96852.94
2022-10-11T09:59:29.110Z,96871.53
2022-10-11T10:02:23.013Z,96864.28
2022-10-11T10:05:05.740Z,96870.84
2022-10-11T10:07:35.059Z,96870.63
2022-10-11T10:10:27.819Z,96870.94
2022-10-11T10:12:56.350Z,96870.16
2022-10-11T10:15:24.999Z,96871.25
2022-10-11T10:17:53.922Z,96871.19
2022-10-11T10:20:25.910Z,96868.78
2022-10-11T10:22:53.916Z,96870.41
2022-10-11T10:25:25.843Z,96872.78
2022-10-11T10:28:01.490Z,96869.50
2022-10-11T10:30:34.629Z,96860.41
2022-10-11T10:33:06.878Z,96868.38
2022-10-11T10:35:41.423Z,96870.19
2022-10-11T10:38:22.835Z,96853.50
2022-10-11T10:40:54.942Z,96858.94
2022-10-11T10:43:25.797Z,96863.59
2022-10-11T10:46:06.727Z,96865.53
2022-10-11T10:49:12.030Z,96853.16
2022-10-11T10:51:41.154Z,96854.97
2022-10-11T10:54:19.589Z,96858.38
2022-10-11T10:56:53.017Z,96854.31
2022-10-11T10:59:37.760Z,96845.00
2022-10-11T11:02:35.530Z,96852.03
2022-10-11T11:05:09.411Z,96853.94
2022-10-11T11:07:44.898Z,96864.94
2022-10-11T11:10:17.847Z,96846.72
2022-10-11T11:12:50.556Z,96849.78
2022-10-11T11:15:31.249Z,96853.28
2022-10-11T11:18:10.832Z,96838.84
2022-10-11T11:21:01.240Z,96844.88
2022-10-11T11:23:38.953Z,96841.28
2022-10-11T11:26:14.212Z,96842.84
2022-10-11T11:28:54.246Z,96850.09
2022-10-11T11:31:40.986Z,96850.28
2022-10-11T11:34:21.340Z,96843.97
2022-10-11T11:36:52.162Z,96843.66
2022-10-11T11:39:25.448Z,96851.50
2022-10-11T11:41:56.712Z,96853.91
2022-10-11T11:44:30.327Z,96836.38
2022-10-11T11:47:02.324Z,96843.84
2022-10-11T11:49:35.048Z,96839.81
2022-10-11T11:52:04.062Z,96842.16
2022-10-11T11:54:49.340Z,96835.09
2022-10-11T11:57:26.532Z,96835.03
2022-10-11T12:00:01.059Z,96818.53
2022-10-11T12:02:39.739Z,96822.94
2022-10-11T12:05:08.348Z,96831.25
2022-10-11T12:07:52.889Z,96826.47
2022-10-11T12:10:29.664Z,96829.88
2022-10-11T12:13:09.199Z,96814.00
2022-10-11T12:15:37.082Z,96821.50
2022-10-11T12:18:13.480Z,96813.06
2022-10-11T12:20:42.739Z,96806.28
2022-10-11T12:23:44.999Z,96802.72
2022-10-11T12:26:42.733Z,96808.59
2022-10-11T12:29:42.313Z,96812.09
2022-10-11T12:32:51.819Z,96797.66
2022-10-11T12:35:42.371Z,96803.25
2022-10-11T12:38:19.954Z,96797.22
2022-10-11T12:40:48.869Z,96804.03
2022-10-11T12:43:37.099Z,96795.63
2022-10-11T12:46:43.501Z,96790.91
2022-10-11T12:49:28.917Z,96780.66
2022-10-11T12:52:01.019Z,96778.91
2022-10-11T12:54:50.653Z,96779.28
2022-10-11T12:57:47.304Z,96781.97
2022-10-11T13:00:23.590Z,96782.16
2022-10-11T13:02:51.265Z,96778.84
2022-10-11T13:05:24.082Z,96770.53
2022-10-11T13:07:52.543Z,96756.84
2022-10-11T13:10:25.665Z,96777.88
2022-10-11T13:12:54.888Z,96775.06
2022-10-11T13:15:24.858Z,96779.13
2022-10-11T13:17:58.840Z,96778.72
2022-10-11T13:20:28.875Z,96770.94
2022-10-11T13:22:57.708Z,96767.00
2022-10-11T13:25:27.138Z,96765.63
2022-10-11T13:27:56.489Z,96770.03
2022-10-11T13:30:29.406Z,96771.81
2022-10-11T13:32:57.711Z,96768.34
2022-10-11T13:35:31.579Z,96775.72
2022-10-11T13:37:59.446Z,96780.41
2022-10-11T13:40:27.970Z,96787.50
2022-10-11T13:42:56.565Z,96772.38
2022-10-11T13:45:27.577Z,96759.78
2022-10-11T13:47:55.977Z,96764.94
2022-10-11T13:50:31.545Z,96760.91
2022-10-11T13:53:01.367Z,96759.41
2022-10-11T13:55:33.128Z,96762.69
2022-10-11T13:58:03.300Z,96761.28
2022-10-11T14:00:35.155Z,96754.06
2022-10-11T14:03:06.490Z,96757.38
2022-10-11T14:05:37.582Z,96753.25
2022-10-11T14:08:08.357Z,96756.72
2022-10-11T14:10:36.178Z,96761.66
2022-10-11T14:13:08.092Z,96753.84
2022-10-11T14:15:38.866Z,96756.69
2022-10-11T14:18:32.468Z,96759.13
2022-10-11T14:21:19.808Z,96752.94
2022-10-11T14:23:48.051Z,96750.28
2022-10-11T14:26:18.855Z,96744.22
2022-10-11T14:28:46.775Z,96747.31
2022-10-11T14:31:15.565Z,96744.84
2022-10-11T14:33:43.001Z,96744.41
2022-10-11T14:36:10.447Z,96731.16
2022-10-11T14:38:37.857Z,96743.34
2022-10-11T14:41:05.287Z,96736.47
2022-10-11T14:43:32.687Z,96742.88
2022-10-11T14:46:00.087Z,96731.06
2022-10-11T14:48:53.799Z,96740.03
2022-10-11T14:51:22.076Z,96730.28
2022-10-11T14:53:49.595Z,96723.25
2022-10-11T14:56:21.350Z,96730.91
2022-10-11T14:58:49.387Z,96727.19
2022-10-11T15:01:18.147Z,96722.13
2022-10-11T15:03:46.932Z,96735.94
2022-10-11T15:06:18.772Z,96725.84
2022-10-11T15:08:46.500Z,96724.81
2022-10-11T15:11:16.785Z,96728.44
2022-10-11T15:13:44.305Z,96732.94
2022-10-11T15:16:13.352Z,96728.06
2022-10-11T15:18:41.019Z,96726.75
2022-10-11T15:21:13.924Z,96733.38
2022-10-11T15:23:41.335Z,96726.34
2022-10-11T15:26:10.871Z,96730.22
2022-10-11T15:28:38.564Z,96720.75
2022-10-11T15:31:06.273Z,96720.22
2022-10-11T15:33:33.663Z,96725.69
2022-10-11T15:36:01.312Z,96718.50
2022-10-11T15:38:30.096Z,96725.19
2022-10-11T15:40:57.530Z,96727.38
2022-10-11T15:43:25.337Z,96723.69
2022-10-11T15:45:52.834Z,96726.28
2022-10-11T15:48:22.497Z,96725.38
2022-10-11T15:50:51.332Z,96716.00
2022-10-11T15:53:20.703Z,96726.69
2022-10-11T15:55:52.023Z,96723.78
2022-10-11T15:58:21.363Z,96714.66
2022-10-11T16:00:50.735Z,96725.22
2022-10-11T16:03:19.145Z,96721.28
2022-10-11T16:05:46.552Z,96732.78
2022-10-11T16:08:14.191Z,96724.50
2022-10-11T16:10:42.552Z,96730.31
2022-10-11T16:13:12.721Z,96723.97
2022-10-11T16:15:41.603Z,96726.56
2022-10-11T16:18:11.502Z,96715.34
2022-10-11T16:20:39.964Z,96722.88
2022-10-11T16:23:07.735Z,96716.75
2022-10-11T16:25:35.975Z,96718.66
2022-10-11T16:28:04.113Z,96732.13
2022-10-11T16:30:32.845Z,96719.91
2022-10-11T16:33:00.526Z,96722.78
2022-10-11T16:35:32.424Z,96723.25
2022-10-11T16:38:01.008Z,96723.41
2022-10-11T16:40:29.971Z,96720.03
2022-10-11T16:42:57.712Z,96719.84
2022-10-11T16:45:25.216Z,96720.41
2022-10-11T16:47:53.974Z,96721.19
2022-10-11T16:50:21.560Z,96722.66
2022-10-11T16:52:48.952Z,96713.28
2022-10-11T16:55:16.660Z,96715.09
2022-10-11T16:57:44.036Z,96713.72
2022-10-11T17:00:13.668Z,96722.19
2022-10-11T17:02:41.074Z,96718.94
2022-10-11T17:05:10.323Z,96723.81
2022-10-11T17:07:37.774Z,96727.97
2022-10-11T17:10:06.178Z,96723.50
2022-10-11T17:12:37.020Z,96733.72
2022-10-11T17:15:05.687Z,96723.91
2022-10-11T17:17:33.115Z,96723.47
2022-10-11T17:20:02.140Z,96723.66
2022-10-11T17:22:30.886Z,96725.38
2022-10-11T17:25:00.179Z,96723.44
2022-10-11T17:27:27.633Z,96727.25
2022-10-11T17:29:55.056Z,96721.44
2022-10-11T17:32:22.489Z,96728.91
2022-10-11T17:34:49.893Z,96716.94
2022-10-11T17:37:18.156Z,96730.06
2022-10-11T17:39:47.070Z,96729.63
2022-10-11T17:42:14.516Z,96739.91
2022-10-11T17:44:42.003Z,96740.59
2022-10-11T17:47:09.412Z,96742.75
2022-10-11T17:49:36.926Z,96737.13
2022-10-11T17:52:04.432Z,96727.38
2022-10-11T17:54:32.169Z,96730.47
2022-10-11T17:57:00.996Z,96730.16
2022-10-11T17:59:28.742Z,96723.47
2022-10-11T18:01:56.154Z,96723.13
2022-10-11T18:04:26.799Z,96725.78
2022-10-11T18:06:54.940Z,96727.66
2022-10-11T18:09:24.513Z,96722.72
2022-10-11T18:11:52.313Z,96723.56
2022-10-11T18:14:21.117Z,96723.78
2022-10-11T18:16:48.708Z,96723.03
2022-10-11T18:19:16.299Z,96722.44
2022-10-11T18:21:43.817Z,96724.47
2022-10-11T18:24:16.219Z,96724.75
2022-10-11T18:26:44.597Z,96720.22
2022-10-11T18:29:13.094Z,96718.44
2022-10-11T18:31:42.207Z,96721.44
2022-10-11T18:34:11.093Z,96723.25
2022-10-11T18:36:39.312Z,96715.28
2022-10-11T18:39:08.850Z,96724.22
2022-10-11T18:41:38.691Z,96709.34
2022-10-11T18:44:08.434Z,96714.50
2022-10-11T18:46:36.621Z,96719.88
2022-10-11T18:49:05.484Z,96724.84
2022-10-11T18:51:34.739Z,96722.06
2022-10-11T18:54:02.256Z,96722.06
2022-10-11T18:56:31.208Z,96716.88
2022-10-11T18:58:59.980Z,96714.72
2022-10-11T19:01:30.023Z,96717.28
2022-10-11T19:03:59.438Z,96725.03
2022-10-11T19:06:30.668Z,96730.81
2022-10-11T19:09:01.465Z,96723.81
2022-10-11T19:11:29.520Z,96728.16
2022-10-11T19:13:57.925Z,96733.53
2022-10-11T19:16:27.177Z,96730.53
2022-10-11T19:18:54.745Z,96733.72
2022-10-11T19:21:23.085Z,96721.56
2022-10-11T19:23:52.560Z,96731.56
2022-10-11T19:26:21.743Z,96733.50
2022-10-11T19:28:54.747Z,96731.69
2022-10-11T19:31:22.300Z,96727.25
2022-10-11T19:33:49.995Z,96730.44
2022-10-11T19:36:18.246Z,96734.31
2022-10-11T19:38:48.142Z,96738.88
2022-10-11T19:41:18.740Z,96739.41
2022-10-11T19:43:46.687Z,96746.56
2022-10-11T19:46:27.375Z,96736.19
2022-10-11T19:49:03.824Z,96749.44
2022-10-11T19:51:34.671Z,96743.69
2022-10-11T19:54:03.611Z,96745.50
2022-10-11T19:56:34.326Z,96742.84
2022-10-11T19:59:02.656Z,96752.25
2022-10-11T20:01:31.701Z,96752.00
2022-10-11T20:04:02.127Z,96744.88
2022-10-11T20:06:35.871Z,96732.34
2022-10-11T20:11:55.886Z,96739.69
2022-10-11T20:14:23.478Z,96750.75
2022-10-11T20:16:51.928Z,96739.38
2022-10-11T20:19:19.586Z,96736.91
2022-10-11T20:21:48.247Z,96740.91
2022-10-11T20:24:15.656Z,96740.09
2022-10-11T20:26:43.082Z,96730.72
2022-10-11T20:29:11.802Z,96724.28
2022-10-11T20:31:40.649Z,96707.84
2022-10-11T20:34:08.259Z,96721.66
2022-10-11T20:36:36.514Z,96720.34
2022-10-11T20:39:05.588Z,96720.72
2022-10-11T20:41:36.796Z,96715.44
2022-10-11T20:44:05.093Z,96715.31
2022-10-11T20:46:35.451Z,96706.47
2022-10-11T20:49:05.305Z,96713.97
2022-10-11T20:51:34.361Z,96714.03
2022-10-11T20:54:04.062Z,96705.72
2022-10-11T20:56:32.056Z,96723.66
2022-10-11T20:58:59.594Z,96725.66
2022-10-11T21:01:28.843Z,96721.84
2022-10-11T21:03:59.809Z,96724.06
2022-10-11T21:06:27.570Z,96712.03
2022-10-11T21:08:55.729Z,96715.97
2022-10-11T21:11:25.855Z,96714.81
2022-10-11T21:13:55.432Z,96695.44
2022-10-11T21:16:22.885Z,96709.28
2022-10-11T21:18:51.585Z,96707.97
2022-10-11T21:21:20.940Z,96713.47
2022-10-11T21:23:48.418Z,96703.16
2022-10-11T21:26:18.220Z,96694.94
2022-10-11T21:28:47.192Z,96700.28
2022-10-11T21:31:17.295Z,96701.78
2022-10-11T21:33:45.244Z,96690.69
2022-10-11T21:36:15.715Z,96698.78
2022-10-11T21:38:44.795Z,96698.63
2022-10-11T21:41:14.212Z,96695.22
2022-10-11T21:43:42.082Z,96691.25
2022-10-11T21:46:11.196Z,96694.25
2022-10-11T21:48:38.651Z,96695.31
2022-10-11T21:51:06.660Z,96686.47
2022-10-11T21:53:34.299Z,96687.28
2022-10-11T21:56:03.069Z,96690.75
2022-10-11T21:58:30.511Z,96687.00
2022-10-11T22:00:57.985Z,96689.38
2022-10-11T22:03:26.496Z,96691.00
2022-10-11T22:05:53.904Z,96688.59
2022-10-11T22:08:21.328Z,96688.31
2022-10-11T22:10:55.052Z,96692.97
2022-10-11T22:13:24.211Z,96676.16
2022-10-11T22:15:51.820Z,96683.66
2022-10-11T22:18:19.255Z,96679.84
2022-10-11T22:20:46.934Z,96683.19
2022-10-11T22:23:14.448Z,96673.53
2022-10-11T22:25:42.116Z,96681.59
2022-10-11T22:28:09.837Z,96684.44
2022-10-11T22:30:38.643Z,96686.75
2022-10-11T22:33:06.108Z,96688.25
2022-10-11T22:35:37.520Z,96683.00
2022-10-11T22:38:06.545Z,96686.75
2022-10-11T22:40:34.124Z,96679.72
2022-10-11T22:43:01.539Z,96689.81
2022-10-11T22:45:28.953Z,96693.50
2022-10-11T22:47:57.758Z,96697.06
2022-10-11T22:50:25.203Z,96695.88
2022-10-11T22:52:52.612Z,96701.38
2022-10-11T22:55:20.409Z,96699.50
2022-10-11T22:57:47.885Z,96701.44
2022-10-11T23:00:15.760Z,96700.59
2022-10-11T23:02:43.453Z,96697.84
2022-10-11T23:05:12.613Z,96693.25
2022-10-11T23:07:40.149Z,96698.81
2022-10-11T23:10:08.419Z,96690.19
2022-10-11T23:12:35.852Z,96689.47
2022-10-11T23:15:03.272Z,96682.53
2022-10-11T23:17:30.680Z,96688.88
2022-10-11T23:19:58.105Z,96692.16
2022-10-11T23:22:26.967Z,96693.78
2022-10-11T23:24:54.409Z,96700.09
2022-10-11T23:27:21.821Z,96677.94
2022-10-11T23:29:49.275Z,96694.34
2022-10-11T23:32:16.727Z,96691.09
2022-10-11T23:34:44.131Z,96686.38
2022-10-11T23:37:11.535Z,96695.25
2022-10-11T23:39:40.281Z,96688.50
2022-10-11T23:42:07.668Z,96687.75
2022-10-11T23:44:35.058Z,96685.19
2022-10-11T23:47:02.788Z,96681.75
2022-10-11T23:49:30.163Z,96695.13
2022-10-11T23:51:57.567Z,96686.72
2022-10-11T23:54:25.051Z,96681.22
2022-10-11T23:56:53.831Z,96687.16
2022-10-11T23:59:21.240Z,96683.75
